sensor_id;sensor_type;location;lat;lon;timestamp;temperature;humidity
41058;DHT22;66768;48.884;2.258;2024-01-30T00:00:28;12.40;99.90
41058;DHT22;66768;48.884;2.258;2024-01-30T00:02:55;12.40;99.90
41058;DHT22;66768;48.884;2.258;2024-01-30T00:05:22;12.40;99.90
41058;DHT22;66768;48.884;2.258;2024-01-30T00:07:50;12.40;99.90
41058;DHT22;66768;48.884;2.258;2024-01-30T00:10:17;12.40;99.90
41058;DHT22;66768;48.884;2.258;2024-01-30T00:12:43;12.40;99.90
41058;DHT22;66768;48.884;2.258;2024-01-30T00:15:10;12.50;99.90
41058;DHT22;66768;48.884;2.258;2024-01-30T00:17:37;12.40;99.90
41058;DHT22;66768;48.884;2.258;2024-01-30T00:20:05;12.40;99.90
41058;DHT22;66768;48.884;2.258;2024-01-30T00:22:32;12.40;99.90
41058;DHT22;66768;48.884;2.258;2024-01-30T00:25:01;12.40;99.90
41058;DHT22;66768;48.884;2.258;2024-01-30T00:27:27;12.40;99.90
41058;DHT22;66768;48.884;2.258;2024-01-30T00:29:54;12.40;99.90
41058;DHT22;66768;48.884;2.258;2024-01-30T00:32:21;12.50;99.90
41058;DHT22;66768;48.884;2.258;2024-01-30T00:34:48;12.40;99.90
41058;DHT22;66768;48.884;2.258;2024-01-30T00:37:15;12.50;99.90
41058;DHT22;66768;48.884;2.258;2024-01-30T00:39:42;12.50;99.90
41058;DHT22;66768;48.884;2.258;2024-01-30T00:42:10;12.50;99.90
41058;DHT22;66768;48.884;2.258;2024-01-30T00:44:37;12.50;99.90
41058;DHT22;66768;48.884;2.258;2024-01-30T00:47:04;12.50;99.90
41058;DHT22;66768;48.884;2.258;2024-01-30T00:49:31;12.50;99.90
41058;DHT22;66768;48.884;2.258;2024-01-30T00:51:58;12.50;99.90
41058;DHT22;66768;48.884;2.258;2024-01-30T00:54:25;12.50;99.90
41058;DHT22;66768;48.884;2.258;2024-01-30T00:56:52;12.40;99.90
41058;DHT22;66768;48.884;2.258;2024-01-30T00:59:20;12.50;99.90
41058;DHT22;66768;48.884;2.258;2024-01-30T01:01:47;12.40;99.90
41058;DHT22;66768;48.884;2.258;2024-01-30T01:04:14;12.40;99.90
41058;DHT22;66768;48.884;2.258;2024-01-30T01:06:40;12.40;99.90
41058;DHT22;66768;48.884;2.258;2024-01-30T01:09:10;12.40;99.90
41058;DHT22;66768;48.884;2.258;2024-01-30T01:11:36;12.40;99.90
41058;DHT22;66768;48.884;2.258;2024-01-30T01:14:04;12.40;99.90
41058;DHT22;66768;48.884;2.258;2024-01-30T01:16:33;12.40;99.90
41058;DHT22;66768;48.884;2.258;2024-01-30T01:19:00;12.40;99.90
41058;DHT22;66768;48.884;2.258;2024-01-30T01:21:27;12.40;99.90
41058;DHT22;66768;48.884;2.258;2024-01-30T01:23:54;12.40;99.90
41058;DHT22;66768;48.884;2.258;2024-01-30T01:26:21;12.40;99.90
41058;DHT22;66768;48.884;2.258;2024-01-30T01:28:48;12.50;99.90
41058;DHT22;66768;48.884;2.258;2024-01-30T01:31:15;12.40;99.90
41058;DHT22;66768;48.884;2.258;2024-01-30T01:33:44;12.40;99.90
41058;DHT22;66768;48.884;2.258;2024-01-30T01:36:11;12.40;99.90
41058;DHT22;66768;48.884;2.258;2024-01-30T01:38:38;12.40;99.90
41058;DHT22;66768;48.884;2.258;2024-01-30T01:41:05;12.40;99.90
41058;DHT22;66768;48.884;2.258;2024-01-30T01:43:31;12.40;99.90
41058;DHT22;66768;48.884;2.258;2024-01-30T01:45:58;12.40;99.90
41058;DHT22;66768;48.884;2.258;2024-01-30T01:48:26;12.40;99.90
41058;DHT22;66768;48.884;2.258;2024-01-30T01:50:55;12.40;99.90
41058;DHT22;66768;48.884;2.258;2024-01-30T01:53:22;12.40;99.90
41058;DHT22;66768;48.884;2.258;2024-01-30T01:55:49;12.40;99.90
41058;DHT22;66768;48.884;2.258;2024-01-30T01:58:16;12.40;99.90
41058;DHT22;66768;48.884;2.258;2024-01-30T02:00:43;12.40;99.90
41058;DHT22;66768;48.884;2.258;2024-01-30T02:03:10;12.40;99.90
41058;DHT22;66768;48.884;2.258;2024-01-30T02:05:38;12.40;99.90
41058;DHT22;66768;48.884;2.258;2024-01-30T02:08:08;12.40;99.90
41058;DHT22;66768;48.884;2.258;2024-01-30T02:10:35;12.40;99.90
41058;DHT22;66768;48.884;2.258;2024-01-30T02:13:02;12.40;99.90
41058;DHT22;66768;48.884;2.258;2024-01-30T02:15:30;12.40;99.90
41058;DHT22;66768;48.884;2.258;2024-01-30T02:17:57;12.40;99.90
41058;DHT22;66768;48.884;2.258;2024-01-30T02:20:25;12.40;99.90
41058;DHT22;66768;48.884;2.258;2024-01-30T02:22:56;12.40;99.90
41058;DHT22;66768;48.884;2.258;2024-01-30T02:25:31;12.40;99.90
41058;DHT22;66768;48.884;2.258;2024-01-30T02:27:58;12.40;99.90
41058;DHT22;66768;48.884;2.258;2024-01-30T02:30:24;12.40;99.90
41058;DHT22;66768;48.884;2.258;2024-01-30T02:32:51;12.40;99.90
41058;DHT22;66768;48.884;2.258;2024-01-30T02:35:18;12.40;99.90
41058;DHT22;66768;48.884;2.258;2024-01-30T02:37:45;12.40;99.90
41058;DHT22;66768;48.884;2.258;2024-01-30T02:40:13;12.50;99.90
41058;DHT22;66768;48.884;2.258;2024-01-30T02:42:40;12.40;99.90
41058;DHT22;66768;48.884;2.258;2024-01-30T02:45:09;12.40;99.90
41058;DHT22;66768;48.884;2.258;2024-01-30T02:47:36;12.40;99.90
41058;DHT22;66768;48.884;2.258;2024-01-30T02:50:03;12.40;99.90
41058;DHT22;66768;48.884;2.258;2024-01-30T02:52:30;12.40;99.90
41058;DHT22;66768;48.884;2.258;2024-01-30T02:54:57;12.40;99.90
41058;DHT22;66768;48.884;2.258;2024-01-30T02:57:25;12.40;99.90
41058;DHT22;66768;48.884;2.258;2024-01-30T02:59:52;12.40;99.90
41058;DHT22;66768;48.884;2.258;2024-01-30T03:02:19;12.40;99.90
41058;DHT22;66768;48.884;2.258;2024-01-30T03:04:46;12.40;99.90
41058;DHT22;66768;48.884;2.258;2024-01-30T03:07:13;12.40;99.90
41058;DHT22;66768;48.884;2.258;2024-01-30T03:09:41;12.40;99.90
41058;DHT22;66768;48.884;2.258;2024-01-30T03:12:08;12.40;99.90
41058;DHT22;66768;48.884;2.258;2024-01-30T03:14:36;12.40;99.90
41058;DHT22;66768;48.884;2.258;2024-01-30T03:17:03;12.40;99.90
41058;DHT22;66768;48.884;2.258;2024-01-30T03:19:30;12.40;99.90
41058;DHT22;66768;48.884;2.258;2024-01-30T03:21:57;12.40;99.90
41058;DHT22;66768;48.884;2.258;2024-01-30T03:24:23;12.40;99.90
41058;DHT22;66768;48.884;2.258;2024-01-30T03:26:50;12.30;99.90
41058;DHT22;66768;48.884;2.258;2024-01-30T03:29:17;12.40;99.90
41058;DHT22;66768;48.884;2.258;2024-01-30T03:31:45;12.40;99.90
41058;DHT22;66768;48.884;2.258;2024-01-30T03:34:12;12.30;99.90
41058;DHT22;66768;48.884;2.258;2024-01-30T03:36:39;12.30;99.90
41058;DHT22;66768;48.884;2.258;2024-01-30T03:39:06;12.30;99.90
41058;DHT22;66768;48.884;2.258;2024-01-30T03:41:33;12.30;99.90
41058;DHT22;66768;48.884;2.258;2024-01-30T03:43:59;12.30;99.90
41058;DHT22;66768;48.884;2.258;2024-01-30T03:46:26;12.30;99.90
41058;DHT22;66768;48.884;2.258;2024-01-30T03:48:54;12.30;99.90
41058;DHT22;66768;48.884;2.258;2024-01-30T03:51:21;12.40;99.90
41058;DHT22;66768;48.884;2.258;2024-01-30T03:53:48;12.30;99.90
41058;DHT22;66768;48.884;2.258;2024-01-30T03:56:16;12.30;99.90
41058;DHT22;66768;48.884;2.258;2024-01-30T03:58:43;12.30;99.90
41058;DHT22;66768;48.884;2.258;2024-01-30T04:01:13;12.30;99.90
41058;DHT22;66768;48.884;2.258;2024-01-30T04:03:40;12.30;99.90
41058;DHT22;66768;48.884;2.258;2024-01-30T04:06:09;12.30;99.90
41058;DHT22;66768;48.884;2.258;2024-01-30T04:08:36;12.30;99.90
41058;DHT22;66768;48.884;2.258;2024-01-30T04:11:04;12.30;99.90
41058;DHT22;66768;48.884;2.258;2024-01-30T04:13:31;12.30;99.90
41058;DHT22;66768;48.884;2.258;2024-01-30T04:15:59;12.30;99.90
41058;DHT22;66768;48.884;2.258;2024-01-30T04:18:25;12.30;99.90
41058;DHT22;66768;48.884;2.258;2024-01-30T04:20:52;12.30;99.90
41058;DHT22;66768;48.884;2.258;2024-01-30T04:23:20;12.30;99.90
41058;DHT22;66768;48.884;2.258;2024-01-30T04:25:47;12.30;99.90
41058;DHT22;66768;48.884;2.258;2024-01-30T04:28:14;12.30;99.90
41058;DHT22;66768;48.884;2.258;2024-01-30T04:30:41;12.30;99.90
41058;DHT22;66768;48.884;2.258;2024-01-30T04:33:08;12.30;99.90
41058;DHT22;66768;48.884;2.258;2024-01-30T04:35:34;12.30;99.90
41058;DHT22;66768;48.884;2.258;2024-01-30T04:38:02;12.30;99.90
41058;DHT22;66768;48.884;2.258;2024-01-30T04:40:30;12.30;99.90
41058;DHT22;66768;48.884;2.258;2024-01-30T04:42:57;12.30;99.90
41058;DHT22;66768;48.884;2.258;2024-01-30T04:45:24;12.40;99.90
41058;DHT22;66768;48.884;2.258;2024-01-30T04:47:51;12.40;99.90
41058;DHT22;66768;48.884;2.258;2024-01-30T04:50:17;12.30;99.90
41058;DHT22;66768;48.884;2.258;2024-01-30T04:52:44;12.30;99.90
41058;DHT22;66768;48.884;2.258;2024-01-30T04:55:11;12.40;99.90
41058;DHT22;66768;48.884;2.258;2024-01-30T04:57:39;12.40;99.90
41058;DHT22;66768;48.884;2.258;2024-01-30T05:00:07;12.40;99.90
41058;DHT22;66768;48.884;2.258;2024-01-30T05:02:34;12.40;99.90
41058;DHT22;66768;48.884;2.258;2024-01-30T05:05:01;12.40;99.90
41058;DHT22;66768;48.884;2.258;2024-01-30T05:07:28;12.30;99.90
41058;DHT22;66768;48.884;2.258;2024-01-30T05:09:55;12.30;99.90
41058;DHT22;66768;48.884;2.258;2024-01-30T05:12:21;12.40;99.90
41058;DHT22;66768;48.884;2.258;2024-01-30T05:14:50;12.30;99.90
41058;DHT22;66768;48.884;2.258;2024-01-30T05:17:16;12.30;99.90
41058;DHT22;66768;48.884;2.258;2024-01-30T05:19:43;12.30;99.90
41058;DHT22;66768;48.884;2.258;2024-01-30T05:22:10;12.30;99.90
41058;DHT22;66768;48.884;2.258;2024-01-30T05:24:40;12.30;99.90
41058;DHT22;66768;48.884;2.258;2024-01-30T05:27:07;12.30;99.90
41058;DHT22;66768;48.884;2.258;2024-01-30T05:29:34;12.30;99.90
41058;DHT22;66768;48.884;2.258;2024-01-30T05:32:03;12.30;99.90
41058;DHT22;66768;48.884;2.258;2024-01-30T05:34:30;12.40;99.90
41058;DHT22;66768;48.884;2.258;2024-01-30T05:36:57;12.30;99.90
41058;DHT22;66768;48.884;2.258;2024-01-30T05:39:24;12.30;99.90
41058;DHT22;66768;48.884;2.258;2024-01-30T05:41:51;12.40;99.90
41058;DHT22;66768;48.884;2.258;2024-01-30T05:44:18;12.30;99.90
41058;DHT22;66768;48.884;2.258;2024-01-30T05:46:45;12.40;99.90
41058;DHT22;66768;48.884;2.258;2024-01-30T05:49:13;12.40;99.90
41058;DHT22;66768;48.884;2.258;2024-01-30T05:51:40;12.40;99.90
41058;DHT22;66768;48.884;2.258;2024-01-30T05:54:06;12.40;99.90
41058;DHT22;66768;48.884;2.258;2024-01-30T05:56:33;12.30;99.90
41058;DHT22;66768;48.884;2.258;2024-01-30T05:59:00;12.40;99.90
41058;DHT22;66768;48.884;2.258;2024-01-30T06:01:27;12.40;99.90
41058;DHT22;66768;48.884;2.258;2024-01-30T06:03:57;12.40;99.90
41058;DHT22;66768;48.884;2.258;2024-01-30T06:06:25;12.40;99.90
41058;DHT22;66768;48.884;2.258;2024-01-30T06:08:52;12.40;99.90
41058;DHT22;66768;48.884;2.258;2024-01-30T06:11:21;12.40;99.90
41058;DHT22;66768;48.884;2.258;2024-01-30T06:13:48;12.40;99.90
41058;DHT22;66768;48.884;2.258;2024-01-30T06:16:14;12.30;99.90
41058;DHT22;66768;48.884;2.258;2024-01-30T06:18:41;12.40;99.90
41058;DHT22;66768;48.884;2.258;2024-01-30T06:21:08;12.40;99.90
41058;DHT22;66768;48.884;2.258;2024-01-30T06:23:36;12.40;99.90
41058;DHT22;66768;48.884;2.258;2024-01-30T06:26:03;12.40;99.90
41058;DHT22;66768;48.884;2.258;2024-01-30T06:28:30;12.40;99.90
41058;DHT22;66768;48.884;2.258;2024-01-30T06:30:57;12.40;99.90
41058;DHT22;66768;48.884;2.258;2024-01-30T06:33:23;12.30;99.90
41058;DHT22;66768;48.884;2.258;2024-01-30T06:35:50;12.30;99.90
41058;DHT22;66768;48.884;2.258;2024-01-30T06:38:17;12.30;99.90
41058;DHT22;66768;48.884;2.258;2024-01-30T06:40:45;12.30;99.90
41058;DHT22;66768;48.884;2.258;2024-01-30T06:43:12;12.30;99.90
41058;DHT22;66768;48.884;2.258;2024-01-30T06:45:39;12.30;99.90
41058;DHT22;66768;48.884;2.258;2024-01-30T06:48:08;12.40;99.90
41058;DHT22;66768;48.884;2.258;2024-01-30T06:50:35;12.40;99.90
41058;DHT22;66768;48.884;2.258;2024-01-30T06:53:01;12.40;99.90
41058;DHT22;66768;48.884;2.258;2024-01-30T06:55:28;12.40;99.90
41058;DHT22;66768;48.884;2.258;2024-01-30T06:57:57;12.40;99.90
41058;DHT22;66768;48.884;2.258;2024-01-30T07:00:23;12.50;99.90
41058;DHT22;66768;48.884;2.258;2024-01-30T07:02:50;12.40;99.90
41058;DHT22;66768;48.884;2.258;2024-01-30T07:05:17;12.40;99.90
41058;DHT22;66768;48.884;2.258;2024-01-30T07:07:44;12.50;99.90
41058;DHT22;66768;48.884;2.258;2024-01-30T07:10:11;12.50;99.90
41058;DHT22;66768;48.884;2.258;2024-01-30T07:12:38;12.50;99.90
41058;DHT22;66768;48.884;2.258;2024-01-30T07:15:06;12.50;99.90
41058;DHT22;66768;48.884;2.258;2024-01-30T07:17:34;12.50;99.90
41058;DHT22;66768;48.884;2.258;2024-01-30T07:20:01;12.50;99.90
41058;DHT22;66768;48.884;2.258;2024-01-30T07:22:29;12.50;99.90
41058;DHT22;66768;48.884;2.258;2024-01-30T07:24:56;12.50;99.90
41058;DHT22;66768;48.884;2.258;2024-01-30T07:27:23;12.50;99.90
41058;DHT22;66768;48.884;2.258;2024-01-30T07:29:50;12.50;99.90
41058;DHT22;66768;48.884;2.258;2024-01-30T07:32:18;12.60;99.90
41058;DHT22;66768;48.884;2.258;2024-01-30T07:34:48;12.60;99.90
41058;DHT22;66768;48.884;2.258;2024-01-30T07:37:14;12.60;99.90
41058;DHT22;66768;48.884;2.258;2024-01-30T07:39:41;12.50;99.90
41058;DHT22;66768;48.884;2.258;2024-01-30T07:42:09;12.50;99.90
41058;DHT22;66768;48.884;2.258;2024-01-30T07:44:35;12.60;99.90
41058;DHT22;66768;48.884;2.258;2024-01-30T07:47:03;12.70;99.90
41058;DHT22;66768;48.884;2.258;2024-01-30T07:49:34;12.60;99.90
41058;DHT22;66768;48.884;2.258;2024-01-30T07:52:01;12.70;99.90
41058;DHT22;66768;48.884;2.258;2024-01-30T07:54:29;12.70;99.90
41058;DHT22;66768;48.884;2.258;2024-01-30T07:56:58;12.60;99.90
41058;DHT22;66768;48.884;2.258;2024-01-30T07:59:25;12.60;99.90
41058;DHT22;66768;48.884;2.258;2024-01-30T08:01:52;12.60;99.90
41058;DHT22;66768;48.884;2.258;2024-01-30T08:04:19;12.70;99.90
41058;DHT22;66768;48.884;2.258;2024-01-30T08:06:47;12.70;99.90
41058;DHT22;66768;48.884;2.258;2024-01-30T08:09:14;12.70;99.90
41058;DHT22;66768;48.884;2.258;2024-01-30T08:11:41;12.70;99.90
41058;DHT22;66768;48.884;2.258;2024-01-30T08:14:08;12.70;99.90
41058;DHT22;66768;48.884;2.258;2024-01-30T08:16:34;12.70;99.90
41058;DHT22;66768;48.884;2.258;2024-01-30T08:19:01;12.70;99.90
41058;DHT22;66768;48.884;2.258;2024-01-30T08:21:28;12.70;99.90
41058;DHT22;66768;48.884;2.258;2024-01-30T08:23:56;12.70;99.90
41058;DHT22;66768;48.884;2.258;2024-01-30T08:26:23;12.70;99.90
41058;DHT22;66768;48.884;2.258;2024-01-30T08:28:50;12.70;99.90
41058;DHT22;66768;48.884;2.258;2024-01-30T08:31:19;12.70;99.90
41058;DHT22;66768;48.884;2.258;2024-01-30T08:33:45;12.70;99.90
41058;DHT22;66768;48.884;2.258;2024-01-30T08:36:12;12.70;99.90
41058;DHT22;66768;48.884;2.258;2024-01-30T08:38:39;12.70;99.90
41058;DHT22;66768;48.884;2.258;2024-01-30T08:41:07;12.70;99.90
41058;DHT22;66768;48.884;2.258;2024-01-30T08:43:34;12.70;99.90
41058;DHT22;66768;48.884;2.258;2024-01-30T08:46:01;12.80;99.90
41058;DHT22;66768;48.884;2.258;2024-01-30T08:48:29;12.70;99.90
41058;DHT22;66768;48.884;2.258;2024-01-30T08:50:55;12.70;99.90
41058;DHT22;66768;48.884;2.258;2024-01-30T08:53:22;12.70;99.90
41058;DHT22;66768;48.884;2.258;2024-01-30T08:55:50;12.80;99.90
41058;DHT22;66768;48.884;2.258;2024-01-30T08:58:18;12.80;99.90
41058;DHT22;66768;48.884;2.258;2024-01-30T09:00:45;12.80;99.90
41058;DHT22;66768;48.884;2.258;2024-01-30T09:03:12;12.80;99.90
41058;DHT22;66768;48.884;2.258;2024-01-30T09:05:39;12.80;99.90
41058;DHT22;66768;48.884;2.258;2024-01-30T09:08:06;12.70;99.90
41058;DHT22;66768;48.884;2.258;2024-01-30T09:10:33;12.80;99.90
41058;DHT22;66768;48.884;2.258;2024-01-30T09:12:59;12.80;99.90
41058;DHT22;66768;48.884;2.258;2024-01-30T09:15:28;12.80;99.90
41058;DHT22;66768;48.884;2.258;2024-01-30T09:17:55;12.80;99.90
41058;DHT22;66768;48.884;2.258;2024-01-30T09:20:22;12.80;99.90
41058;DHT22;66768;48.884;2.258;2024-01-30T09:22:49;12.80;99.90
41058;DHT22;66768;48.884;2.258;2024-01-30T09:25:16;12.70;99.90
41058;DHT22;66768;48.884;2.258;2024-01-30T09:27:44;12.80;99.90
41058;DHT22;66768;48.884;2.258;2024-01-30T09:30:11;12.80;99.90
41058;DHT22;66768;48.884;2.258;2024-01-30T09:32:41;12.80;99.90
41058;DHT22;66768;48.884;2.258;2024-01-30T09:35:09;12.80;99.90
41058;DHT22;66768;48.884;2.258;2024-01-30T09:37:35;12.80;99.90
41058;DHT22;66768;48.884;2.258;2024-01-30T09:40:03;12.80;99.90
41058;DHT22;66768;48.884;2.258;2024-01-30T09:42:34;12.80;99.90
41058;DHT22;66768;48.884;2.258;2024-01-30T09:45:01;12.80;99.90
41058;DHT22;66768;48.884;2.258;2024-01-30T09:47:31;12.80;99.90
41058;DHT22;66768;48.884;2.258;2024-01-30T09:50:00;12.80;99.90
41058;DHT22;66768;48.884;2.258;2024-01-30T09:52:31;12.80;99.90
41058;DHT22;66768;48.884;2.258;2024-01-30T09:54:59;12.80;99.90
41058;DHT22;66768;48.884;2.258;2024-01-30T09:57:29;12.90;99.90
41058;DHT22;66768;48.884;2.258;2024-01-30T09:59:56;12.90;99.90
41058;DHT22;66768;48.884;2.258;2024-01-30T10:02:23;12.90;99.90
41058;DHT22;66768;48.884;2.258;2024-01-30T10:04:51;12.90;99.90
41058;DHT22;66768;48.884;2.258;2024-01-30T10:07:20;13.00;99.90
41058;DHT22;66768;48.884;2.258;2024-01-30T10:09:47;13.00;99.90
41058;DHT22;66768;48.884;2.258;2024-01-30T10:12:15;13.00;99.90
41058;DHT22;66768;48.884;2.258;2024-01-30T10:14:42;13.00;99.90
41058;DHT22;66768;48.884;2.258;2024-01-30T10:17:11;13.00;99.90
41058;DHT22;66768;48.884;2.258;2024-01-30T10:19:39;13.10;99.90
41058;DHT22;66768;48.884;2.258;2024-01-30T10:22:06;13.10;99.90
41058;DHT22;66768;48.884;2.258;2024-01-30T10:24:35;13.10;99.90
41058;DHT22;66768;48.884;2.258;2024-01-30T10:27:02;13.20;99.90
41058;DHT22;66768;48.884;2.258;2024-01-30T10:29:29;13.10;99.90
41058;DHT22;66768;48.884;2.258;2024-01-30T10:32:00;13.10;99.90
41058;DHT22;66768;48.884;2.258;2024-01-30T10:34:27;13.10;99.90
41058;DHT22;66768;48.884;2.258;2024-01-30T10:37:00;13.20;99.90
41058;DHT22;66768;48.884;2.258;2024-01-30T10:39:30;13.20;99.90
41058;DHT22;66768;48.884;2.258;2024-01-30T10:42:04;13.20;99.90
41058;DHT22;66768;48.884;2.258;2024-01-30T10:44:37;13.20;99.90
41058;DHT22;66768;48.884;2.258;2024-01-30T10:47:11;13.30;99.90
41058;DHT22;66768;48.884;2.258;2024-01-30T10:49:40;13.30;99.90
41058;DHT22;66768;48.884;2.258;2024-01-30T10:52:08;13.30;99.90
41058;DHT22;66768;48.884;2.258;2024-01-30T10:54:36;13.30;99.90
41058;DHT22;66768;48.884;2.258;2024-01-30T10:57:05;13.30;99.90
41058;DHT22;66768;48.884;2.258;2024-01-30T10:59:33;13.40;99.90
41058;DHT22;66768;48.884;2.258;2024-01-30T11:02:00;13.40;99.90
41058;DHT22;66768;48.884;2.258;2024-01-30T11:04:30;13.40;99.90
41058;DHT22;66768;48.884;2.258;2024-01-30T11:07:01;13.40;99.90
41058;DHT22;66768;48.884;2.258;2024-01-30T11:09:29;13.40;99.90
41058;DHT22;66768;48.884;2.258;2024-01-30T11:11:58;13.40;99.90
41058;DHT22;66768;48.884;2.258;2024-01-30T11:14:28;13.40;99.90
41058;DHT22;66768;48.884;2.258;2024-01-30T11:16:58;13.40;99.90
41058;DHT22;66768;48.884;2.258;2024-01-30T11:19:25;13.30;99.90
41058;DHT22;66768;48.884;2.258;2024-01-30T11:21:53;13.30;99.90
41058;DHT22;66768;48.884;2.258;2024-01-30T11:24:22;13.20;99.90
41058;DHT22;66768;48.884;2.258;2024-01-30T11:26:49;13.20;99.90
41058;DHT22;66768;48.884;2.258;2024-01-30T11:29:17;13.20;99.90
41058;DHT22;66768;48.884;2.258;2024-01-30T11:31:53;13.20;99.90
41058;DHT22;66768;48.884;2.258;2024-01-30T11:34:20;13.20;99.90
41058;DHT22;66768;48.884;2.258;2024-01-30T11:36:52;13.20;99.90
41058;DHT22;66768;48.884;2.258;2024-01-30T11:39:24;13.10;99.90
41058;DHT22;66768;48.884;2.258;2024-01-30T11:41:52;13.10;99.90
41058;DHT22;66768;48.884;2.258;2024-01-30T11:44:19;13.10;99.90
41058;DHT22;66768;48.884;2.258;2024-01-30T11:46:47;13.10;99.90
41058;DHT22;66768;48.884;2.258;2024-01-30T11:49:16;13.10;99.90
41058;DHT22;66768;48.884;2.258;2024-01-30T11:51:43;13.10;99.90
41058;DHT22;66768;48.884;2.258;2024-01-30T11:54:14;13.10;99.90
41058;DHT22;66768;48.884;2.258;2024-01-30T11:56:41;13.10;99.90
41058;DHT22;66768;48.884;2.258;2024-01-30T11:59:08;13.10;99.90
41058;DHT22;66768;48.884;2.258;2024-01-30T12:01:35;13.10;99.90
41058;DHT22;66768;48.884;2.258;2024-01-30T12:04:02;13.10;99.90
41058;DHT22;66768;48.884;2.258;2024-01-30T12:06:35;13.10;99.90
41058;DHT22;66768;48.884;2.258;2024-01-30T12:09:03;13.00;99.90
41058;DHT22;66768;48.884;2.258;2024-01-30T12:11:31;13.10;99.90
41058;DHT22;66768;48.884;2.258;2024-01-30T12:13:58;13.10;99.90
41058;DHT22;66768;48.884;2.258;2024-01-30T12:16:25;13.10;99.90
41058;DHT22;66768;48.884;2.258;2024-01-30T12:18:59;13.10;99.90
41058;DHT22;66768;48.884;2.258;2024-01-30T12:21:27;13.10;99.90
41058;DHT22;66768;48.884;2.258;2024-01-30T12:23:56;13.10;99.90
41058;DHT22;66768;48.884;2.258;2024-01-30T12:26:23;13.10;99.90
41058;DHT22;66768;48.884;2.258;2024-01-30T12:28:53;13.10;99.90
41058;DHT22;66768;48.884;2.258;2024-01-30T12:31:25;13.10;99.90
41058;DHT22;66768;48.884;2.258;2024-01-30T12:33:53;13.10;99.90
41058;DHT22;66768;48.884;2.258;2024-01-30T12:36:21;13.10;99.90
41058;DHT22;66768;48.884;2.258;2024-01-30T12:38:48;13.10;99.90
41058;DHT22;66768;48.884;2.258;2024-01-30T12:41:17;13.10;99.90
41058;DHT22;66768;48.884;2.258;2024-01-30T12:43:44;13.10;99.90
41058;DHT22;66768;48.884;2.258;2024-01-30T12:46:11;13.10;99.90
41058;DHT22;66768;48.884;2.258;2024-01-30T12:48:37;13.10;99.90
41058;DHT22;66768;48.884;2.258;2024-01-30T12:51:04;13.10;99.90
41058;DHT22;66768;48.884;2.258;2024-01-30T12:53:31;13.10;99.90
41058;DHT22;66768;48.884;2.258;2024-01-30T12:56:01;13.10;99.90
41058;DHT22;66768;48.884;2.258;2024-01-30T12:58:29;13.10;99.90
41058;DHT22;66768;48.884;2.258;2024-01-30T13:00:56;13.10;99.90
41058;DHT22;66768;48.884;2.258;2024-01-30T13:03:23;13.20;99.90
41058;DHT22;66768;48.884;2.258;2024-01-30T13:05:50;13.20;99.90
41058;DHT22;66768;48.884;2.258;2024-01-30T13:08:17;13.20;99.90
41058;DHT22;66768;48.884;2.258;2024-01-30T13:10:44;13.20;99.90
41058;DHT22;66768;48.884;2.258;2024-01-30T13:13:13;13.20;99.90
41058;DHT22;66768;48.884;2.258;2024-01-30T13:15:41;13.20;99.90
41058;DHT22;66768;48.884;2.258;2024-01-30T13:18:08;13.20;99.90
41058;DHT22;66768;48.884;2.258;2024-01-30T13:20:35;13.20;99.90
41058;DHT22;66768;48.884;2.258;2024-01-30T13:23:02;13.30;99.90
41058;DHT22;66768;48.884;2.258;2024-01-30T13:25:29;13.30;99.90
41058;DHT22;66768;48.884;2.258;2024-01-30T13:27:56;13.30;99.90
41058;DHT22;66768;48.884;2.258;2024-01-30T13:30:23;13.20;99.90
41058;DHT22;66768;48.884;2.258;2024-01-30T13:32:51;13.20;99.90
41058;DHT22;66768;48.884;2.258;2024-01-30T13:35:18;13.30;99.90
41058;DHT22;66768;48.884;2.258;2024-01-30T13:37:45;13.30;99.90
41058;DHT22;66768;48.884;2.258;2024-01-30T13:40:13;13.20;99.90
41058;DHT22;66768;48.884;2.258;2024-01-30T13:42:41;13.30;99.90
41058;DHT22;66768;48.884;2.258;2024-01-30T13:45:08;13.30;99.90
41058;DHT22;66768;48.884;2.258;2024-01-30T13:47:36;13.20;99.90
41058;DHT22;66768;48.884;2.258;2024-01-30T13:50:05;13.30;99.90
41058;DHT22;66768;48.884;2.258;2024-01-30T13:52:32;13.30;99.90
41058;DHT22;66768;48.884;2.258;2024-01-30T13:54:58;13.30;99.90
41058;DHT22;66768;48.884;2.258;2024-01-30T13:57:25;13.30;99.90
41058;DHT22;66768;48.884;2.258;2024-01-30T13:59:52;13.30;99.90
41058;DHT22;66768;48.884;2.258;2024-01-30T14:02:19;13.30;99.90
41058;DHT22;66768;48.884;2.258;2024-01-30T14:04:46;13.30;99.90
41058;DHT22;66768;48.884;2.258;2024-01-30T14:07:14;13.20;99.90
41058;DHT22;66768;48.884;2.258;2024-01-30T14:09:41;13.20;99.90
41058;DHT22;66768;48.884;2.258;2024-01-30T14:12:08;13.20;99.90
41058;DHT22;66768;48.884;2.258;2024-01-30T14:14:35;13.20;99.90
41058;DHT22;66768;48.884;2.258;2024-01-30T14:17:03;13.20;99.90
41058;DHT22;66768;48.884;2.258;2024-01-30T14:19:32;13.20;99.90
41058;DHT22;66768;48.884;2.258;2024-01-30T14:21:59;13.30;99.90
41058;DHT22;66768;48.884;2.258;2024-01-30T14:24:27;13.30;99.90
41058;DHT22;66768;48.884;2.258;2024-01-30T14:26:54;13.20;99.90
41058;DHT22;66768;48.884;2.258;2024-01-30T14:29:21;13.30;99.90
41058;DHT22;66768;48.884;2.258;2024-01-30T14:31:48;13.30;99.90
41058;DHT22;66768;48.884;2.258;2024-01-30T14:34:14;13.30;99.90
41058;DHT22;66768;48.884;2.258;2024-01-30T14:36:41;13.40;99.90
41058;DHT22;66768;48.884;2.258;2024-01-30T14:39:08;13.30;99.90
41058;DHT22;66768;48.884;2.258;2024-01-30T14:41:37;13.40;99.90
41058;DHT22;66768;48.884;2.258;2024-01-30T14:44:04;13.30;99.90
41058;DHT22;66768;48.884;2.258;2024-01-30T14:46:33;13.40;99.90
41058;DHT22;66768;48.884;2.258;2024-01-30T14:49:00;13.30;99.90
41058;DHT22;66768;48.884;2.258;2024-01-30T14:51:29;13.30;99.90
41058;DHT22;66768;48.884;2.258;2024-01-30T14:53:56;13.30;99.90
41058;DHT22;66768;48.884;2.258;2024-01-30T14:56:23;13.30;99.90
41058;DHT22;66768;48.884;2.258;2024-01-30T14:58:51;13.30;99.90
41058;DHT22;66768;48.884;2.258;2024-01-30T15:01:18;13.30;99.90
41058;DHT22;66768;48.884;2.258;2024-01-30T15:03:45;13.30;99.90
41058;DHT22;66768;48.884;2.258;2024-01-30T15:06:12;13.30;99.90
41058;DHT22;66768;48.884;2.258;2024-01-30T15:08:39;13.30;99.90
41058;DHT22;66768;48.884;2.258;2024-01-30T15:11:06;13.20;99.90
41058;DHT22;66768;48.884;2.258;2024-01-30T15:13:33;13.20;99.90
41058;DHT22;66768;48.884;2.258;2024-01-30T15:16:03;13.20;99.90
41058;DHT22;66768;48.884;2.258;2024-01-30T15:18:31;13.20;99.90
41058;DHT22;66768;48.884;2.258;2024-01-30T15:20:58;13.10;99.90
41058;DHT22;66768;48.884;2.258;2024-01-30T15:23:24;13.10;99.90
41058;DHT22;66768;48.884;2.258;2024-01-30T15:25:51;13.10;99.90
41058;DHT22;66768;48.884;2.258;2024-01-30T15:28:18;13.10;99.90
41058;DHT22;66768;48.884;2.258;2024-01-30T15:30:46;13.10;99.90